Choibalsan, Mongolia
Current Conditions -  °F | °C
As of 1:00 AM on Friday 19 Dec 2014 (Local Time) from UIAA Reporting Station
Scattered Clouds Scattered Clouds  
Wind Chill: -4°   Ceiling: Unl
Heat Index:   Visibility: 6mi
Dew Point:   Wind: 9mph
Humidity: 67%   Direction: 260°W
Pressure: 30.06"   Gusts: NA
Location:  48.06°N, 114.51°E
Report Text: UIAA 181700Z 26004MPS 250V320 9999 SCT100 M13/M18 Q1018 NOSIGRMK QFE705 29CLRD70
Loading
Personal Weather Stations






























Interactive Weather Map New forecast layout! Learn more

10-Day Weather Forecast

Advertisements
Track Severe Weather on mobile